Moffett Field, California
Current Conditions -  °F | °C
As of 10:56 PM on Tuesday 21 Oct 2014 (Local Time) from KNUQ Reporting Station
Clear Clear  
Wind Chill: 59°   Ceiling: Unl
Heat Index: 59°   Visibility: 10mi
Dew Point: 49°   Wind: 0mph
Humidity: 69%   Direction: NA
Pressure: 30.06"   Gusts: NA
Location:  37.4154°N, 122.058°W
Report Text: KNUQ 220556Z AUTO 00000KT 10SM CLR 15/09 A3006 RMK AO2 SLP182 T01500094 10200 20150 53007 TSNO
Loading
Personal Weather Stations






























Interactive Weather Map
Tropical Storm Tracking
New forecast layout! Learn more

10-Day Weather Forecast

Advertisements
Track Severe Weather on mobile